createdAt,value
2018-01-12T00:01:12.492Z,2.30
2018-01-12T00:03:39.634Z,2.40
2018-01-12T00:06:06.062Z,2.30
2018-01-12T00:08:32.446Z,2.30
2018-01-12T00:10:59.612Z,2.30
2018-01-12T00:13:25.984Z,2.30
2018-01-12T00:15:52.418Z,2.30
2018-01-12T00:18:18.786Z,2.30
2018-01-12T00:20:45.925Z,2.30
2018-01-12T00:23:12.333Z,2.20
2018-01-12T00:25:38.698Z,2.30
2018-01-12T00:28:05.102Z,2.20
2018-01-12T00:30:31.490Z,2.20
2018-01-12T00:32:57.902Z,2.10
2018-01-12T00:35:24.270Z,2.10
2018-01-12T00:37:50.706Z,2.10
2018-01-12T00:40:17.138Z,2.00
2018-01-12T00:42:43.578Z,2.00
2018-01-12T00:45:10.069Z,2.00
2018-01-12T00:47:36.490Z,1.90
2018-01-12T00:50:02.913Z,2.00
2018-01-12T00:52:29.336Z,1.90
2018-01-12T00:54:55.792Z,1.90
2018-01-12T00:57:22.230Z,2.00
2018-01-12T00:59:48.645Z,2.00
2018-01-12T01:02:15.089Z,2.00
2018-01-12T01:04:41.473Z,2.00
2018-01-12T01:07:08.647Z,2.00
2018-01-12T01:09:35.066Z,2.00
2018-01-12T01:12:01.522Z,2.00
2018-01-12T01:14:27.921Z,2.00
2018-01-12T01:16:55.058Z,2.10
2018-01-12T01:19:22.181Z,2.10
2018-01-12T01:21:48.571Z,2.00
2018-01-12T01:24:14.985Z,2.10
2018-01-12T01:26:42.114Z,2.10
2018-01-12T01:29:08.486Z,2.10
2018-01-12T01:31:34.885Z,2.10
2018-01-12T01:34:01.278Z,2.10
2018-01-12T01:36:27.689Z,2.10
2018-01-12T01:38:54.080Z,2.10
2018-01-12T01:41:20.474Z,2.10
2018-01-12T01:43:46.897Z,2.20
2018-01-12T01:46:13.305Z,2.20
2018-01-12T01:48:40.506Z,2.10
2018-01-12T01:51:06.909Z,2.10
2018-01-12T01:53:33.281Z,2.10
2018-01-12T01:55:59.681Z,2.10
2018-01-12T01:58:26.058Z,2.10
2018-01-12T02:00:52.462Z,2.10
2018-01-12T02:03:18.894Z,2.00
2018-01-12T02:05:45.292Z,2.00
2018-01-12T02:08:12.441Z,2.00
2018-01-12T02:10:39.564Z,2.00
2018-01-12T02:13:05.950Z,1.90
2018-01-12T02:15:32.357Z,2.00
2018-01-12T02:17:58.728Z,2.00
2018-01-12T02:20:25.118Z,2.00
2018-01-12T02:22:51.497Z,2.00
2018-01-12T02:25:17.889Z,2.00
2018-01-12T02:27:44.274Z,2.00
2018-01-12T02:30:10.681Z,2.00
2018-01-12T02:32:37.074Z,2.00
2018-01-12T02:35:03.486Z,2.00
2018-01-12T02:37:29.882Z,2.00
2018-01-12T02:39:56.257Z,2.00
2018-01-12T02:42:22.650Z,2.00
2018-01-12T02:44:49.030Z,2.00
2018-01-12T02:47:15.470Z,2.00
2018-01-12T02:49:41.842Z,2.00
2018-01-12T02:52:09.006Z,2.10
2018-01-12T02:54:35.409Z,2.00
2018-01-12T02:57:01.796Z,2.10
2018-01-12T02:59:28.202Z,2.10
2018-01-12T03:01:54.589Z,2.10
2018-01-12T03:04:20.980Z,2.10
2018-01-12T03:06:47.401Z,2.10
2018-01-12T03:09:14.553Z,2.10
2018-01-12T03:11:41.693Z,2.10
2018-01-12T03:14:08.818Z,2.10
2018-01-12T03:16:35.209Z,2.10
2018-01-12T03:19:01.617Z,2.10
2018-01-12T03:21:28.790Z,2.10
2018-01-12T03:23:55.173Z,2.10
2018-01-12T03:26:22.297Z,2.10
2018-01-12T03:28:48.694Z,2.10
2018-01-12T03:31:15.814Z,2.10
2018-01-12T03:33:42.241Z,2.10
2018-01-12T03:36:08.622Z,2.10
2018-01-12T03:38:35.032Z,2.10
2018-01-12T03:41:02.189Z,2.10
2018-01-12T03:43:29.360Z,2.10
2018-01-12T03:45:55.777Z,2.10
2018-01-12T03:48:22.887Z,2.10
2018-01-12T03:50:49.272Z,2.10
2018-01-12T03:53:15.650Z,2.10
2018-01-12T03:55:42.058Z,2.10
2018-01-12T03:58:08.447Z,2.20
2018-01-12T04:00:34.866Z,2.10
2018-01-12T04:03:01.264Z,2.10
2018-01-12T04:05:27.671Z,2.10
2018-01-12T04:07:54.834Z,2.10
2018-01-12T04:10:21.262Z,2.00
2018-01-12T04:12:47.883Z,2.00
2018-01-12T04:15:27.755Z,2.10
2018-01-12T04:17:55.218Z,2.00
2018-01-12T04:20:21.617Z,2.10
2018-01-12T04:22:48.739Z,2.10
2018-01-12T04:25:15.150Z,2.10
2018-01-12T04:27:41.517Z,2.10
2018-01-12T04:30:07.923Z,2.10
2018-01-12T04:32:35.174Z,2.10
2018-01-12T04:35:01.594Z,2.10
2018-01-12T04:37:27.981Z,2.10
2018-01-12T04:39:54.372Z,2.20
2018-01-12T04:42:20.785Z,2.20
2018-01-12T04:44:47.161Z,2.20
2018-01-12T04:47:13.562Z,2.20
2018-01-12T04:49:39.969Z,2.10
2018-01-12T04:52:07.119Z,2.20
2018-01-12T04:54:34.234Z,2.20
2018-01-12T04:57:00.666Z,2.10
2018-01-12T04:59:27.055Z,2.20
2018-01-12T05:01:54.210Z,2.20
2018-01-12T05:04:20.595Z,2.10
2018-01-12T05:06:47.010Z,2.20
2018-01-12T05:09:13.459Z,2.20
2018-01-12T05:11:39.880Z,2.20
2018-01-12T05:14:06.374Z,2.20
2018-01-12T05:16:33.604Z,2.20
2018-01-12T05:19:00.075Z,2.20
2018-01-12T05:21:26.456Z,2.20
2018-01-12T05:23:52.853Z,2.20
2018-01-12T05:26:19.226Z,2.20
2018-01-12T05:28:45.629Z,2.20
2018-01-12T05:31:12.040Z,2.20
2018-01-12T05:33:38.560Z,2.20
2018-01-12T05:36:05.729Z,2.20
2018-01-12T05:38:33.622Z,2.10
2018-01-12T05:41:00.954Z,2.20
2018-01-12T05:43:28.954Z,2.20
2018-01-12T05:45:55.337Z,2.20
2018-01-12T05:48:22.491Z,2.20
2018-01-12T05:50:49.638Z,2.20
2018-01-12T05:53:17.085Z,2.20
2018-01-12T05:55:44.230Z,2.20
2018-01-12T05:58:10.634Z,2.20
2018-01-12T06:00:37.012Z,2.20
2018-01-12T06:03:16.469Z,2.20
2018-01-12T06:05:55.934Z,2.30
2018-01-12T06:08:22.330Z,2.20
2018-01-12T06:10:49.449Z,2.30
2018-01-12T06:13:16.038Z,2.30
2018-01-12T06:15:42.414Z,2.30
2018-01-12T06:18:08.853Z,2.30
2018-01-12T06:20:35.418Z,2.30
2018-01-12T06:23:02.546Z,2.30
2018-01-12T06:25:28.961Z,2.20
2018-01-12T06:27:55.353Z,2.30
2018-01-12T06:30:22.518Z,2.30
2018-01-12T06:32:48.909Z,2.20
2018-01-12T06:35:15.319Z,2.30
2018-01-12T06:37:41.710Z,2.30
2018-01-12T06:40:08.862Z,2.30
2018-01-12T06:42:35.989Z,2.20
2018-01-12T06:45:02.402Z,2.20
2018-01-12T06:47:28.790Z,2.30
2018-01-12T06:49:55.165Z,2.30
2018-01-12T06:52:21.569Z,2.30
2018-01-12T06:54:47.981Z,2.30
2018-01-12T06:57:15.117Z,2.20
2018-01-12T06:59:42.258Z,2.30
2018-01-12T07:02:08.650Z,2.20
2018-01-12T07:04:35.059Z,2.20
2018-01-12T07:07:01.442Z,2.20
2018-01-12T07:09:27.858Z,2.20
2018-01-12T07:11:54.303Z,2.30
2018-01-12T07:14:20.721Z,2.30
2018-01-12T07:16:47.129Z,2.30
2018-01-12T07:19:13.562Z,2.40
2018-01-12T07:21:52.302Z,2.40
2018-01-12T07:24:18.746Z,2.40
2018-01-12T07:26:45.206Z,2.40
2018-01-12T07:29:11.593Z,2.50
2018-01-12T07:31:38.001Z,2.50
2018-01-12T07:34:04.441Z,2.60
2018-01-12T07:36:31.603Z,2.60
2018-01-12T07:38:58.749Z,2.70
2018-01-12T07:41:25.919Z,2.70
2018-01-12T07:43:52.325Z,2.70
2018-01-12T07:46:19.466Z,2.80
2018-01-12T07:48:45.864Z,2.70
2018-01-12T07:51:12.273Z,2.80
2018-01-12T07:53:38.692Z,2.70
2018-01-12T07:56:05.833Z,2.80
2018-01-12T07:58:32.989Z,2.80
2018-01-12T08:01:06.211Z,2.90
2018-01-12T08:03:32.620Z,2.80
2018-01-12T08:05:59.745Z,2.80
2018-01-12T08:08:26.149Z,2.80
2018-01-12T08:10:52.548Z,2.90
2018-01-12T08:13:20.179Z,3.00
2018-01-12T08:15:46.576Z,2.90
2018-01-12T08:18:12.982Z,3.10
2018-01-12T08:20:39.377Z,3.10
2018-01-12T08:23:05.777Z,3.20
2018-01-12T08:25:32.238Z,3.30
2018-01-12T08:27:58.669Z,3.20
2018-01-12T08:30:25.145Z,3.20
2018-01-12T08:32:52.286Z,3.40
2018-01-12T08:35:19.417Z,3.50
2018-01-12T08:37:45.631Z,3.40
2018-01-12T08:40:11.829Z,3.60
2018-01-12T08:42:38.064Z,3.70
2018-01-12T08:45:04.283Z,3.70
2018-01-12T08:47:30.520Z,3.80
2018-01-12T08:49:56.787Z,3.80
2018-01-12T08:52:23.019Z,3.80
2018-01-12T08:54:49.224Z,3.80
2018-01-12T08:57:15.462Z,3.80
2018-01-12T08:59:41.669Z,4.00
2018-01-12T09:02:07.908Z,3.90
2018-01-12T09:04:34.152Z,4.00
2018-01-12T09:07:00.383Z,4.00
2018-01-12T09:09:26.624Z,4.00
2018-01-12T09:11:52.837Z,3.90
2018-01-12T09:14:25.045Z,3.80
2018-01-12T09:16:51.280Z,3.80
2018-01-12T09:19:23.478Z,3.80
2018-01-12T09:21:54.831Z,3.90
2018-01-12T09:24:21.073Z,4.00
2018-01-12T09:26:47.306Z,4.10
2018-01-12T09:29:13.519Z,4.10
2018-01-12T09:31:42.808Z,4.10
2018-01-12T09:34:15.976Z,4.20
2018-01-12T09:36:42.188Z,4.10
2018-01-12T09:39:08.433Z,4.20
2018-01-12T09:41:34.668Z,4.40
2018-01-12T09:44:00.892Z,4.50
2018-01-12T09:46:27.151Z,4.50
2018-01-12T09:48:54.121Z,4.40
2018-01-12T09:51:20.334Z,4.40
2018-01-12T09:53:47.329Z,4.50
2018-01-12T09:56:13.553Z,4.50
2018-01-12T09:58:39.772Z,4.70
2018-01-12T10:01:20.943Z,4.60
2018-01-12T10:03:47.151Z,4.50
2018-01-12T10:06:14.129Z,4.60
2018-01-12T10:08:40.365Z,4.50
2018-01-12T10:11:06.613Z,4.70
2018-01-12T10:13:32.847Z,4.70
2018-01-12T10:15:59.075Z,4.90
2018-01-12T10:18:31.432Z,4.90
2018-01-12T10:21:03.825Z,4.90
2018-01-12T10:23:30.052Z,5.00
2018-01-12T10:25:56.261Z,5.30
2018-01-12T10:28:22.528Z,5.30
2018-01-12T10:30:57.768Z,5.40
2018-01-12T10:33:30.197Z,5.70
2018-01-12T10:35:56.463Z,5.80
2018-01-12T10:38:22.697Z,5.50
2018-01-12T10:54:16.769Z,5.90
2018-01-12T10:56:43.001Z,6.30
2018-01-12T10:59:09.216Z,6.10
2018-01-12T11:01:35.481Z,5.60
2018-01-12T11:04:01.705Z,5.70
2018-01-12T11:06:27.957Z,5.70
2018-01-12T11:08:54.925Z,5.30
2018-01-12T11:11:21.153Z,5.30
2018-01-12T11:13:47.392Z,5.50
2018-01-12T11:16:13.652Z,5.60
2018-01-12T11:18:39.904Z,5.60
2018-01-12T11:21:06.111Z,5.80
2018-01-12T11:23:32.314Z,5.90
2018-01-12T11:25:58.545Z,5.80
2018-01-12T11:28:24.789Z,5.90
2018-01-12T11:30:51.033Z,5.90
2018-01-12T11:33:17.257Z,5.80
2018-01-12T11:35:43.516Z,5.80
2018-01-12T11:38:10.488Z,6.00
2018-01-12T11:40:36.698Z,6.00
2018-01-12T11:43:03.684Z,5.50
2018-01-12T11:45:29.900Z,5.50
2018-01-12T11:47:56.125Z,5.50
2018-01-12T11:50:22.324Z,5.70
2018-01-12T11:52:48.551Z,5.50
2018-01-12T11:55:14.801Z,5.50
2018-01-12T11:57:41.778Z,5.60
2018-01-12T12:00:08.052Z,5.50
2018-01-12T12:02:34.247Z,5.60
2018-01-12T12:05:00.538Z,5.80
2018-01-12T12:07:27.475Z,6.00
2018-01-12T12:09:53.716Z,6.00
2018-01-12T12:12:20.685Z,5.70
2018-01-12T12:14:46.909Z,5.60
2018-01-12T12:17:13.120Z,5.70
2018-01-12T12:19:40.106Z,5.20
2018-01-12T12:22:06.305Z,5.10
2018-01-12T12:24:33.262Z,5.00
2018-01-12T12:26:59.481Z,5.00
2018-01-12T12:29:26.448Z,5.20
2018-01-12T12:31:52.682Z,5.20
2018-01-12T12:34:18.928Z,5.10
2018-01-12T12:36:45.188Z,5.10
2018-01-12T12:39:11.425Z,5.20
2018-01-12T12:41:37.671Z,5.00
2018-01-12T12:44:04.625Z,5.20
2018-01-12T12:46:31.594Z,5.20
2018-01-12T12:48:57.809Z,5.10
2018-01-12T12:51:24.053Z,5.20
2018-01-12T12:53:57.457Z,5.20
2018-01-12T12:56:23.679Z,5.30
2018-01-12T12:58:49.898Z,4.90
2018-01-12T13:01:16.128Z,4.60
2018-01-12T13:03:42.343Z,4.50
2018-01-12T13:06:09.299Z,4.70
2018-01-12T13:08:36.270Z,4.70
2018-01-12T13:11:02.490Z,4.60
2018-01-12T13:13:28.705Z,4.70
2018-01-12T13:15:55.728Z,4.50
2018-01-12T13:18:21.932Z,4.50
2018-01-12T13:20:48.160Z,4.40
2018-01-12T13:23:14.400Z,4.20
2018-01-12T13:25:40.703Z,4.10
2018-01-12T13:28:06.924Z,4.30
2018-01-12T13:30:33.168Z,4.40
2018-01-12T13:32:59.394Z,4.30
2018-01-12T13:35:25.624Z,4.10
2018-01-12T13:37:51.849Z,4.10
2018-01-12T13:40:18.074Z,4.10
2018-01-12T13:42:44.320Z,4.10
2018-01-12T13:45:10.572Z,4.00
2018-01-12T13:47:36.799Z,4.00
2018-01-12T13:50:03.052Z,4.30
2018-01-12T13:52:29.258Z,4.30
2018-01-12T13:54:55.500Z,4.20
2018-01-12T13:57:21.742Z,4.10
2018-01-12T13:59:47.941Z,4.10
2018-01-12T14:02:14.194Z,4.10
2018-01-12T14:04:40.396Z,4.00
2018-01-12T14:07:06.653Z,4.00
2018-01-12T14:09:32.884Z,4.00
2018-01-12T14:11:59.866Z,4.00
2018-01-12T14:14:26.139Z,3.90
2018-01-12T14:16:52.349Z,4.00
2018-01-12T14:19:18.576Z,4.00
2018-01-12T14:21:44.914Z,4.10
2018-01-12T14:24:11.156Z,4.10
2018-01-12T14:26:37.366Z,4.00
2018-01-12T14:29:03.605Z,3.90
2018-01-12T14:31:29.816Z,3.80
2018-01-12T14:33:56.048Z,3.70
2018-01-12T14:36:22.292Z,3.60
2018-01-12T14:38:48.563Z,3.70
2018-01-12T14:41:14.824Z,3.70
2018-01-12T14:43:41.771Z,3.60
2018-01-12T14:46:08.777Z,3.70
2018-01-12T14:48:35.003Z,3.70
2018-01-12T14:51:01.246Z,3.80
2018-01-12T14:53:27.453Z,3.80
2018-01-12T14:55:53.689Z,3.70
2018-01-12T14:58:19.924Z,3.80
2018-01-12T15:00:46.144Z,3.80
2018-01-12T15:03:12.406Z,3.80
2018-01-12T15:05:38.600Z,3.80
2018-01-12T15:08:04.829Z,3.80
2018-01-12T15:10:31.035Z,3.80
2018-01-12T15:12:57.252Z,3.80
2018-01-12T15:15:23.487Z,3.80
2018-01-12T15:17:49.698Z,3.80
2018-01-12T15:20:16.663Z,3.70
2018-01-12T15:22:42.862Z,3.70
2018-01-12T15:25:09.155Z,3.70
2018-01-12T15:27:35.406Z,3.70
2018-01-12T15:30:01.628Z,3.70
2018-01-12T15:32:27.887Z,3.60
2018-01-12T15:34:54.840Z,3.60
2018-01-12T15:37:21.828Z,3.50
2018-01-12T15:39:48.067Z,3.50
2018-01-12T15:42:14.344Z,3.50
2018-01-12T15:44:41.300Z,3.40
2018-01-12T15:47:08.265Z,3.40
2018-01-12T15:49:34.541Z,3.30
2018-01-12T15:52:00.752Z,3.30
2018-01-12T15:54:27.037Z,3.30
2018-01-12T15:56:54.032Z,3.30
2018-01-12T15:59:20.332Z,3.30
2018-01-12T16:01:46.536Z,3.30
2018-01-12T16:04:13.523Z,3.30
2018-01-12T16:06:39.822Z,3.20
2018-01-12T16:09:06.847Z,3.30
2018-01-12T16:11:33.213Z,3.20
2018-01-12T16:13:59.428Z,3.30
2018-01-12T16:16:26.404Z,3.20
2018-01-12T16:18:52.615Z,3.20
2018-01-12T16:21:19.601Z,3.20
2018-01-12T16:23:45.879Z,3.20
2018-01-12T16:26:12.076Z,3.30
2018-01-12T16:28:38.321Z,3.20
2018-01-12T16:31:04.540Z,3.30
2018-01-12T16:33:30.763Z,3.30
2018-01-12T16:35:56.956Z,3.20
2018-01-12T16:38:23.183Z,3.20
2018-01-12T16:40:49.386Z,3.20
2018-01-12T16:43:15.637Z,3.20
2018-01-12T16:45:41.835Z,3.10
2018-01-12T16:48:08.068Z,3.10
2018-01-12T16:50:34.269Z,3.00
2018-01-12T16:53:00.500Z,3.00
2018-01-12T16:55:26.708Z,3.00
2018-01-12T16:57:53.039Z,2.90
2018-01-12T17:00:19.260Z,2.90
2018-01-12T17:02:45.468Z,2.90
2018-01-12T17:05:12.435Z,2.90
2018-01-12T17:07:38.656Z,2.80
2018-01-12T17:10:05.640Z,2.90
2018-01-12T17:12:31.828Z,2.80
2018-01-12T17:14:58.052Z,2.90
2018-01-12T17:17:25.036Z,2.90
2018-01-12T17:19:51.242Z,2.80
2018-01-12T17:22:17.465Z,2.80
2018-01-12T17:24:43.695Z,2.80
2018-01-12T17:27:09.933Z,2.80
2018-01-12T17:29:36.132Z,2.80
2018-01-12T17:32:05.520Z,2.80
2018-01-12T17:34:35.465Z,2.80
2018-01-12T17:37:09.041Z,2.80
2018-01-12T17:39:36.973Z,2.70
2018-01-12T17:42:04.328Z,2.80
2018-01-12T17:44:30.737Z,2.80
2018-01-12T17:46:59.002Z,2.80
2018-01-12T17:49:25.420Z,2.80
2018-01-12T17:51:52.328Z,2.90
2018-01-12T17:54:18.574Z,2.80
2018-01-12T17:56:44.798Z,2.80
2018-01-12T17:59:11.062Z,2.80
2018-01-12T18:01:38.167Z,2.90
2018-01-12T18:04:04.405Z,2.90
2018-01-12T18:06:30.647Z,2.90
2018-01-12T18:08:56.868Z,2.90
2018-01-12T18:11:23.137Z,2.90
2018-01-12T18:13:50.097Z,2.80
2018-01-12T18:16:17.076Z,2.80
2018-01-12T18:18:43.318Z,2.80
2018-01-12T18:21:09.534Z,2.80
2018-01-12T18:23:35.767Z,2.80
2018-01-12T18:26:01.979Z,2.80
2018-01-12T18:28:28.225Z,2.80
2018-01-12T18:30:55.049Z,2.80
2018-01-12T18:33:22.825Z,2.80
2018-01-12T18:35:52.705Z,2.70
2018-01-12T18:38:21.431Z,2.80
2018-01-12T18:40:52.248Z,2.80
2018-01-12T18:43:20.541Z,2.70
2018-01-12T18:46:31.265Z,2.80
2018-01-12T18:48:59.699Z,2.80
2018-01-12T18:51:28.274Z,2.80
2018-01-12T18:53:57.151Z,2.80
2018-01-12T18:56:24.309Z,2.80
2018-01-12T18:58:50.950Z,2.80
2018-01-12T19:01:17.338Z,2.80
2018-01-12T19:03:43.749Z,2.80
2018-01-12T19:06:10.160Z,2.70
2018-01-12T19:08:36.666Z,2.70
2018-01-12T19:11:03.823Z,2.70
2018-01-12T19:13:30.974Z,2.70
2018-01-12T19:15:58.158Z,2.70
2018-01-12T19:18:24.622Z,2.70
2018-01-12T19:20:51.116Z,2.70
2018-01-12T19:23:18.092Z,2.70
2018-01-12T19:25:44.526Z,2.80
2018-01-12T19:28:10.962Z,2.70
2018-01-12T19:30:37.400Z,2.70
2018-01-12T19:33:03.821Z,2.70
2018-01-12T19:35:30.210Z,2.70
2018-01-12T19:37:57.370Z,2.70
2018-01-12T19:40:31.895Z,2.70
2018-01-12T19:42:59.177Z,2.70
2018-01-12T19:45:25.675Z,2.70
2018-01-12T19:47:52.131Z,2.70
2018-01-12T19:50:19.761Z,2.70
2018-01-12T19:52:47.058Z,2.70
2018-01-12T19:55:13.537Z,2.70
2018-01-12T19:57:40.133Z,2.70
2018-01-12T20:00:07.239Z,2.70
2018-01-12T20:02:34.042Z,2.70
2018-01-12T20:05:00.492Z,2.70
2018-01-12T20:07:26.973Z,2.80
2018-01-12T20:09:54.173Z,2.70
2018-01-12T20:12:20.571Z,2.70
2018-01-12T20:14:47.094Z,2.80
2018-01-12T20:17:14.506Z,2.80
2018-01-12T20:19:41.081Z,2.70
2018-01-12T20:22:08.272Z,2.80
2018-01-12T20:24:34.812Z,2.80
2018-01-12T20:27:01.233Z,2.80
2018-01-12T20:29:27.648Z,2.80
2018-01-12T20:31:54.104Z,2.70
2018-01-12T20:34:20.591Z,2.80
2018-01-12T20:36:47.029Z,2.70
2018-01-12T20:39:13.481Z,2.70
2018-01-12T20:41:39.983Z,2.70
2018-01-12T20:44:06.485Z,2.70
2018-01-12T20:46:32.942Z,2.70
2018-01-12T20:48:59.451Z,2.60
2018-01-12T20:51:25.837Z,2.70
2018-01-12T20:53:52.261Z,2.60
2018-01-12T20:56:18.679Z,2.60
2018-01-12T20:58:45.138Z,2.60
2018-01-12T21:01:11.565Z,2.60
2018-01-12T21:03:39.154Z,2.60
2018-01-12T21:06:06.164Z,2.60
2018-01-12T21:08:33.478Z,2.50
2018-01-12T21:11:00.771Z,2.60
2018-01-12T21:13:28.550Z,2.50
2018-01-12T21:15:54.946Z,2.50
2018-01-12T21:18:21.372Z,2.50
2018-01-12T21:20:49.094Z,2.50
2018-01-12T21:23:17.044Z,2.40
2018-01-12T21:25:44.295Z,2.50
2018-01-12T21:28:10.728Z,2.50
2018-01-12T21:30:37.349Z,2.50
2018-01-12T21:33:03.779Z,2.50
2018-01-12T21:35:30.185Z,2.50
2018-01-12T21:37:56.561Z,2.50
2018-01-12T21:40:24.038Z,2.60
2018-01-12T21:42:50.430Z,2.60
2018-01-12T21:45:17.586Z,2.50
2018-01-12T21:47:45.385Z,2.60
2018-01-12T21:50:13.634Z,2.50
2018-01-12T21:52:41.528Z,2.50
2018-01-12T21:55:07.977Z,2.40
2018-01-12T21:57:34.401Z,2.50
2018-01-12T22:00:00.806Z,2.50
2018-01-12T22:02:28.939Z,2.50
2018-01-12T22:04:55.360Z,2.60
2018-01-12T22:07:21.760Z,2.50
2018-01-12T22:09:49.131Z,2.60
2018-01-12T22:12:16.898Z,2.50
2018-01-12T22:14:44.080Z,2.50
2018-01-12T22:17:10.521Z,2.50
2018-01-12T22:19:36.951Z,2.60
2018-01-12T22:22:03.366Z,2.50
2018-01-12T22:24:29.786Z,2.50
2018-01-12T22:26:56.161Z,2.50
2018-01-12T22:29:22.573Z,2.50
2018-01-12T22:31:48.941Z,2.40
2018-01-12T22:34:16.101Z,2.40
2018-01-12T22:36:43.275Z,2.40
2018-01-12T22:39:09.670Z,2.40
2018-01-12T22:41:37.901Z,2.50
2018-01-12T22:44:04.306Z,2.50
2018-01-12T22:46:31.452Z,2.50
2018-01-12T22:48:58.643Z,2.50
2018-01-12T22:51:25.017Z,2.50
2018-01-12T22:53:51.430Z,2.50
2018-01-12T22:56:17.805Z,2.50
2018-01-12T22:58:45.004Z,2.50
2018-01-12T23:01:11.582Z,2.50
2018-01-12T23:03:38.729Z,2.50
2018-01-12T23:06:05.165Z,2.50
2018-01-12T23:08:31.582Z,2.50
2018-01-12T23:10:58.000Z,2.40
2018-01-12T23:13:24.434Z,2.40
2018-01-12T23:15:52.342Z,2.40
2018-01-12T23:18:21.528Z,2.50
2018-01-12T23:20:49.575Z,2.40
2018-01-12T23:23:18.101Z,2.40
2018-01-12T23:25:44.580Z,2.40
2018-01-12T23:28:10.971Z,2.40
2018-01-12T23:30:38.186Z,2.40
2018-01-12T23:33:04.630Z,2.40
2018-01-12T23:35:31.070Z,2.40
2018-01-12T23:37:57.489Z,2.40
2018-01-12T23:40:24.784Z,2.40
2018-01-12T23:42:51.997Z,2.40
2018-01-12T23:45:18.389Z,2.30
2018-01-12T23:47:44.792Z,2.40
2018-01-12T23:50:11.238Z,2.30
2018-01-12T23:52:38.388Z,2.30
2018-01-12T23:55:04.828Z,2.30
2018-01-12T23:57:31.957Z,2.30
2018-01-12T23:59:58.356Z,2.30
